sensor_id;sensor_type;location;lat;lon;timestamp;P1;durP1;ratioP1;P2;durP2;ratioP2
25868;SDS011;13688;53.154;18.136;2023-03-14T00:01:08;6.73;;;3.00;;
25868;SDS011;13688;53.154;18.136;2023-03-14T00:06:32;6.40;;;3.70;;
25868;SDS011;13688;53.154;18.136;2023-03-14T00:11:56;8.87;;;3.50;;
25868;SDS011;13688;53.154;18.136;2023-03-14T00:17:19;7.00;;;3.57;;
25868;SDS011;13688;53.154;18.136;2023-03-14T00:22:43;8.30;;;3.67;;
25868;SDS011;13688;53.154;18.136;2023-03-14T00:28:06;8.30;;;3.63;;
25868;SDS011;13688;53.154;18.136;2023-03-14T00:33:29;7.70;;;3.73;;
25868;SDS011;13688;53.154;18.136;2023-03-14T00:38:52;10.33;;;3.87;;
25868;SDS011;13688;53.154;18.136;2023-03-14T00:44:15;7.40;;;3.50;;
25868;SDS011;13688;53.154;18.136;2023-03-14T00:49:37;6.63;;;3.77;;
25868;SDS011;13688;53.154;18.136;2023-03-14T00:55:00;7.60;;;3.30;;
25868;SDS011;13688;53.154;18.136;2023-03-14T01:00:23;6.27;;;3.40;;
25868;SDS011;13688;53.154;18.136;2023-03-14T01:05:47;6.67;;;3.43;;
25868;SDS011;13688;53.154;18.136;2023-03-14T01:11:21;5.20;;;3.00;;
25868;SDS011;13688;53.154;18.136;2023-03-14T01:16:47;4.17;;;2.77;;
25868;SDS011;13688;53.154;18.136;2023-03-14T01:22:09;4.97;;;2.80;;
25868;SDS011;13688;53.154;18.136;2023-03-14T01:27:32;6.13;;;3.00;;
25868;SDS011;13688;53.154;18.136;2023-03-14T01:32:55;5.60;;;2.77;;
25868;SDS011;13688;53.154;18.136;2023-03-14T01:38:18;5.10;;;2.57;;
25868;SDS011;13688;53.154;18.136;2023-03-14T01:43:41;4.33;;;2.23;;
25868;SDS011;13688;53.154;18.136;2023-03-14T01:54:43;3.90;;;2.53;;
25868;SDS011;13688;53.154;18.136;2023-03-14T02:00:15;5.43;;;2.73;;
25868;SDS011;13688;53.154;18.136;2023-03-14T02:05:38;6.20;;;2.00;;
25868;SDS011;13688;53.154;18.136;2023-03-14T02:11:01;6.70;;;2.40;;
25868;SDS011;13688;53.154;18.136;2023-03-14T02:16:24;4.10;;;2.30;;
25868;SDS011;13688;53.154;18.136;2023-03-14T02:21:49;4.47;;;2.10;;
25868;SDS011;13688;53.154;18.136;2023-03-14T02:32:36;4.37;;;2.03;;
25868;SDS011;13688;53.154;18.136;2023-03-14T02:38:04;3.40;;;2.00;;
25868;SDS011;13688;53.154;18.136;2023-03-14T02:43:52;6.97;;;2.33;;
25868;SDS011;13688;53.154;18.136;2023-03-14T02:49:14;3.80;;;2.10;;
25868;SDS011;13688;53.154;18.136;2023-03-14T02:54:37;4.30;;;1.60;;
25868;SDS011;13688;53.154;18.136;2023-03-14T03:00:00;3.20;;;1.60;;
25868;SDS011;13688;53.154;18.136;2023-03-14T03:05:24;2.33;;;1.50;;
25868;SDS011;13688;53.154;18.136;2023-03-14T03:10:48;2.13;;;1.47;;
25868;SDS011;13688;53.154;18.136;2023-03-14T03:16:12;2.27;;;1.10;;
25868;SDS011;13688;53.154;18.136;2023-03-14T03:21:34;2.37;;;1.30;;
25868;SDS011;13688;53.154;18.136;2023-03-14T03:26:57;2.77;;;1.27;;
25868;SDS011;13688;53.154;18.136;2023-03-14T03:32:19;1.70;;;1.07;;
25868;SDS011;13688;53.154;18.136;2023-03-14T03:37:42;2.07;;;1.30;;
25868;SDS011;13688;53.154;18.136;2023-03-14T03:43:04;4.03;;;1.30;;
25868;SDS011;13688;53.154;18.136;2023-03-14T03:48:27;2.27;;;1.40;;
25868;SDS011;13688;53.154;18.136;2023-03-14T03:53:50;2.50;;;1.20;;
25868;SDS011;13688;53.154;18.136;2023-03-14T03:59:13;1.70;;;1.10;;
25868;SDS011;13688;53.154;18.136;2023-03-14T04:04:35;1.90;;;1.10;;
25868;SDS011;13688;53.154;18.136;2023-03-14T04:09:58;1.73;;;1.00;;
25868;SDS011;13688;53.154;18.136;2023-03-14T04:15:20;1.53;;;1.00;;
25868;SDS011;13688;53.154;18.136;2023-03-14T04:20:42;2.03;;;1.33;;
25868;SDS011;13688;53.154;18.136;2023-03-14T04:26:06;2.97;;;1.20;;
25868;SDS011;13688;53.154;18.136;2023-03-14T04:31:28;4.03;;;1.67;;
25868;SDS011;13688;53.154;18.136;2023-03-14T04:36:51;2.93;;;1.43;;
25868;SDS011;13688;53.154;18.136;2023-03-14T04:42:14;2.27;;;1.30;;
25868;SDS011;13688;53.154;18.136;2023-03-14T04:47:36;3.57;;;1.30;;
25868;SDS011;13688;53.154;18.136;2023-03-14T04:52:59;2.20;;;1.33;;
25868;SDS011;13688;53.154;18.136;2023-03-14T04:58:22;3.70;;;1.60;;
25868;SDS011;13688;53.154;18.136;2023-03-14T05:03:44;2.40;;;1.63;;
25868;SDS011;13688;53.154;18.136;2023-03-14T05:09:07;3.70;;;1.90;;
25868;SDS011;13688;53.154;18.136;2023-03-14T05:14:29;4.77;;;1.80;;
25868;SDS011;13688;53.154;18.136;2023-03-14T05:19:51;2.97;;;2.00;;
25868;SDS011;13688;53.154;18.136;2023-03-14T05:25:15;3.80;;;2.20;;
25868;SDS011;13688;53.154;18.136;2023-03-14T05:30:38;4.23;;;1.83;;
25868;SDS011;13688;53.154;18.136;2023-03-14T05:36:00;4.40;;;2.40;;
25868;SDS011;13688;53.154;18.136;2023-03-14T05:41:23;6.93;;;2.77;;
25868;SDS011;13688;53.154;18.136;2023-03-14T05:46:46;5.93;;;2.60;;
25868;SDS011;13688;53.154;18.136;2023-03-14T05:52:08;6.90;;;2.67;;
25868;SDS011;13688;53.154;18.136;2023-03-14T05:57:31;6.03;;;2.87;;
25868;SDS011;13688;53.154;18.136;2023-03-14T06:02:54;9.63;;;3.67;;
25868;SDS011;13688;53.154;18.136;2023-03-14T06:08:16;7.70;;;3.50;;
25868;SDS011;13688;53.154;18.136;2023-03-14T06:13:39;6.47;;;3.27;;
25868;SDS011;13688;53.154;18.136;2023-03-14T06:19:01;5.50;;;3.23;;
25868;SDS011;13688;53.154;18.136;2023-03-14T06:24:23;11.12;;;4.45;;
25868;SDS011;13688;53.154;18.136;2023-03-14T06:29:45;9.48;;;4.17;;
25868;SDS011;13688;53.154;18.136;2023-03-14T06:35:08;6.85;;;3.40;;
25868;SDS011;13688;53.154;18.136;2023-03-14T06:40:31;6.30;;;3.08;;
25868;SDS011;13688;53.154;18.136;2023-03-14T06:45:53;10.50;;;3.37;;
25868;SDS011;13688;53.154;18.136;2023-03-14T06:51:15;7.15;;;3.50;;
25868;SDS011;13688;53.154;18.136;2023-03-14T06:56:38;6.83;;;3.67;;
25868;SDS011;13688;53.154;18.136;2023-03-14T07:02:01;6.33;;;3.55;;
25868;SDS011;13688;53.154;18.136;2023-03-14T07:07:28;6.25;;;3.22;;
25868;SDS011;13688;53.154;18.136;2023-03-14T07:12:50;6.55;;;3.67;;
25868;SDS011;13688;53.154;18.136;2023-03-14T07:18:13;6.70;;;3.50;;
25868;SDS011;13688;53.154;18.136;2023-03-14T07:23:35;8.43;;;3.67;;
25868;SDS011;13688;53.154;18.136;2023-03-14T07:28:58;8.30;;;3.50;;
25868;SDS011;13688;53.154;18.136;2023-03-14T07:34:20;7.67;;;4.20;;
25868;SDS011;13688;53.154;18.136;2023-03-14T07:39:43;6.80;;;3.70;;
25868;SDS011;13688;53.154;18.136;2023-03-14T07:45:08;11.10;;;4.35;;
25868;SDS011;13688;53.154;18.136;2023-03-14T07:50:31;6.15;;;3.42;;
25868;SDS011;13688;53.154;18.136;2023-03-14T07:55:54;10.10;;;3.80;;
25868;SDS011;13688;53.154;18.136;2023-03-14T08:01:18;7.58;;;4.22;;
25868;SDS011;13688;53.154;18.136;2023-03-14T08:06:40;7.62;;;4.03;;
25868;SDS011;13688;53.154;18.136;2023-03-14T08:12:02;8.48;;;4.45;;
25868;SDS011;13688;53.154;18.136;2023-03-14T08:17:25;8.05;;;3.77;;
25868;SDS011;13688;53.154;18.136;2023-03-14T08:22:48;7.75;;;3.35;;
25868;SDS011;13688;53.154;18.136;2023-03-14T08:28:14;7.08;;;3.75;;
25868;SDS011;13688;53.154;18.136;2023-03-14T08:33:37;5.35;;;3.15;;
25868;SDS011;13688;53.154;18.136;2023-03-14T08:38:59;7.47;;;3.52;;
25868;SDS011;13688;53.154;18.136;2023-03-14T08:44:22;5.10;;;3.37;;
25868;SDS011;13688;53.154;18.136;2023-03-14T08:49:45;6.70;;;3.92;;
25868;SDS011;13688;53.154;18.136;2023-03-14T08:55:08;6.05;;;3.72;;
25868;SDS011;13688;53.154;18.136;2023-03-14T09:00:33;6.78;;;3.58;;
25868;SDS011;13688;53.154;18.136;2023-03-14T09:06:00;6.67;;;3.22;;
25868;SDS011;13688;53.154;18.136;2023-03-14T09:11:21;6.05;;;3.00;;
25868;SDS011;13688;53.154;18.136;2023-03-14T09:16:44;4.08;;;2.77;;
25868;SDS011;13688;53.154;18.136;2023-03-14T09:22:06;4.95;;;2.77;;
25868;SDS011;13688;53.154;18.136;2023-03-14T09:27:30;5.20;;;2.55;;
25868;SDS011;13688;53.154;18.136;2023-03-14T09:32:52;6.53;;;2.70;;
25868;SDS011;13688;53.154;18.136;2023-03-14T09:38:15;4.12;;;2.52;;
25868;SDS011;13688;53.154;18.136;2023-03-14T09:43:38;5.58;;;2.58;;
25868;SDS011;13688;53.154;18.136;2023-03-14T09:49:11;6.40;;;2.65;;
25868;SDS011;13688;53.154;18.136;2023-03-14T09:54:53;4.72;;;2.58;;
25868;SDS011;13688;53.154;18.136;2023-03-14T10:00:26;4.90;;;2.33;;
25868;SDS011;13688;53.154;18.136;2023-03-14T10:22:31;3.90;;;2.27;;
25868;SDS011;13688;53.154;18.136;2023-03-14T10:27:55;5.03;;;2.13;;
25868;SDS011;13688;53.154;18.136;2023-03-14T10:34:04;4.67;;;1.97;;
25868;SDS011;13688;53.154;18.136;2023-03-14T10:39:39;3.55;;;1.77;;
25868;SDS011;13688;53.154;18.136;2023-03-14T10:45:25;3.57;;;1.90;;
25868;SDS011;13688;53.154;18.136;2023-03-14T10:50:56;7.73;;;1.80;;
25868;SDS011;13688;53.154;18.136;2023-03-14T10:56:33;4.23;;;1.70;;
25868;SDS011;13688;53.154;18.136;2023-03-14T11:07:39;5.17;;;2.37;;
25868;SDS011;13688;53.154;18.136;2023-03-14T11:30:26;4.67;;;1.80;;
25868;SDS011;13688;53.154;18.136;2023-03-14T11:35:53;6.25;;;1.75;;
25868;SDS011;13688;53.154;18.136;2023-03-14T11:41:39;4.57;;;1.57;;
25868;SDS011;13688;53.154;18.136;2023-03-14T11:47:02;4.72;;;1.72;;
25868;SDS011;13688;53.154;18.136;2023-03-14T11:52:51;5.33;;;1.80;;
25868;SDS011;13688;53.154;18.136;2023-03-14T11:58:27;5.83;;;2.15;;
25868;SDS011;13688;53.154;18.136;2023-03-14T12:04:05;5.00;;;1.83;;
25868;SDS011;13688;53.154;18.136;2023-03-14T12:09:32;7.53;;;1.77;;
25868;SDS011;13688;53.154;18.136;2023-03-14T12:14:56;6.08;;;2.25;;
25868;SDS011;13688;53.154;18.136;2023-03-14T12:20:25;7.40;;;2.08;;
25868;SDS011;13688;53.154;18.136;2023-03-14T12:26:05;5.67;;;2.17;;
25868;SDS011;13688;53.154;18.136;2023-03-14T12:37:42;6.00;;;2.30;;
25868;SDS011;13688;53.154;18.136;2023-03-14T12:43:04;7.50;;;2.20;;
25868;SDS011;13688;53.154;18.136;2023-03-14T13:00:31;7.75;;;2.67;;
25868;SDS011;13688;53.154;18.136;2023-03-14T13:06:01;10.88;;;3.40;;
25868;SDS011;13688;53.154;18.136;2023-03-14T13:11:27;8.50;;;2.92;;
25868;SDS011;13688;53.154;18.136;2023-03-14T13:16:50;5.62;;;2.37;;
25868;SDS011;13688;53.154;18.136;2023-03-14T13:22:24;6.57;;;2.87;;
25868;SDS011;13688;53.154;18.136;2023-03-14T13:27:51;7.45;;;2.65;;
25868;SDS011;13688;53.154;18.136;2023-03-14T13:33:15;6.97;;;2.90;;
25868;SDS011;13688;53.154;18.136;2023-03-14T13:38:39;6.50;;;2.92;;
25868;SDS011;13688;53.154;18.136;2023-03-14T13:44:20;9.23;;;2.60;;
25868;SDS011;13688;53.154;18.136;2023-03-14T13:54:56;6.60;;;2.70;;
25868;SDS011;13688;53.154;18.136;2023-03-14T14:00:23;7.08;;;2.45;;
25868;SDS011;13688;53.154;18.136;2023-03-14T14:05:46;7.83;;;3.25;;
25868;SDS011;13688;53.154;18.136;2023-03-14T14:11:14;6.45;;;2.58;;
25868;SDS011;13688;53.154;18.136;2023-03-14T14:16:56;5.75;;;2.40;;
25868;SDS011;13688;53.154;18.136;2023-03-14T14:22:26;7.20;;;2.30;;
25868;SDS011;13688;53.154;18.136;2023-03-14T14:27:49;6.42;;;2.87;;
25868;SDS011;13688;53.154;18.136;2023-03-14T14:33:26;6.67;;;2.98;;
25868;SDS011;13688;53.154;18.136;2023-03-14T14:44:42;8.27;;;3.00;;
25868;SDS011;13688;53.154;18.136;2023-03-14T14:50:20;7.67;;;2.90;;
25868;SDS011;13688;53.154;18.136;2023-03-14T14:55:52;7.62;;;2.95;;
25868;SDS011;13688;53.154;18.136;2023-03-14T15:01:30;7.70;;;2.60;;
25868;SDS011;13688;53.154;18.136;2023-03-14T15:06:54;5.00;;;2.65;;
25868;SDS011;13688;53.154;18.136;2023-03-14T15:12:18;6.37;;;2.60;;
25868;SDS011;13688;53.154;18.136;2023-03-14T15:17:40;8.13;;;2.80;;
25868;SDS011;13688;53.154;18.136;2023-03-14T15:23:04;5.45;;;2.05;;
25868;SDS011;13688;53.154;18.136;2023-03-14T15:28:29;4.30;;;2.00;;
25868;SDS011;13688;53.154;18.136;2023-03-14T15:33:51;4.60;;;2.10;;
25868;SDS011;13688;53.154;18.136;2023-03-14T15:39:14;7.70;;;1.90;;
25868;SDS011;13688;53.154;18.136;2023-03-14T15:44:37;6.20;;;2.30;;
25868;SDS011;13688;53.154;18.136;2023-03-14T15:50:01;4.33;;;2.10;;
25868;SDS011;13688;53.154;18.136;2023-03-14T15:55:24;5.03;;;2.20;;
25868;SDS011;13688;53.154;18.136;2023-03-14T16:00:48;7.03;;;1.70;;
25868;SDS011;13688;53.154;18.136;2023-03-14T16:06:21;4.47;;;2.00;;
25868;SDS011;13688;53.154;18.136;2023-03-14T16:11:44;4.73;;;1.70;;
25868;SDS011;13688;53.154;18.136;2023-03-14T16:17:08;1.97;;;1.20;;
25868;SDS011;13688;53.154;18.136;2023-03-14T16:22:30;4.07;;;1.40;;
25868;SDS011;13688;53.154;18.136;2023-03-14T16:27:53;5.10;;;2.27;;
25868;SDS011;13688;53.154;18.136;2023-03-14T16:33:15;8.27;;;2.97;;
25868;SDS011;13688;53.154;18.136;2023-03-14T16:38:39;9.33;;;3.50;;
25868;SDS011;13688;53.154;18.136;2023-03-14T16:44:02;11.70;;;3.43;;
25868;SDS011;13688;53.154;18.136;2023-03-14T16:49:25;8.20;;;3.10;;
25868;SDS011;13688;53.154;18.136;2023-03-14T16:54:48;6.97;;;2.90;;
25868;SDS011;13688;53.154;18.136;2023-03-14T17:00:12;7.83;;;2.83;;
25868;SDS011;13688;53.154;18.136;2023-03-14T17:05:35;10.70;;;3.15;;
25868;SDS011;13688;53.154;18.136;2023-03-14T17:11:02;4.40;;;2.70;;
25868;SDS011;13688;53.154;18.136;2023-03-14T17:16:25;6.13;;;2.80;;
25868;SDS011;13688;53.154;18.136;2023-03-14T17:21:48;4.25;;;2.35;;
25868;SDS011;13688;53.154;18.136;2023-03-14T17:27:12;5.92;;;2.00;;
25868;SDS011;13688;53.154;18.136;2023-03-14T17:32:35;4.83;;;2.00;;
25868;SDS011;13688;53.154;18.136;2023-03-14T17:37:59;7.97;;;2.30;;
25868;SDS011;13688;53.154;18.136;2023-03-14T17:43:22;6.40;;;2.70;;
25868;SDS011;13688;53.154;18.136;2023-03-14T17:48:45;6.50;;;2.43;;
25868;SDS011;13688;53.154;18.136;2023-03-14T17:54:08;5.10;;;2.50;;
25868;SDS011;13688;53.154;18.136;2023-03-14T17:59:33;4.95;;;2.65;;
25868;SDS011;13688;53.154;18.136;2023-03-14T18:04:58;5.67;;;2.40;;
25868;SDS011;13688;53.154;18.136;2023-03-14T18:10:21;7.20;;;3.10;;
25868;SDS011;13688;53.154;18.136;2023-03-14T18:15:45;6.17;;;3.10;;
25868;SDS011;13688;53.154;18.136;2023-03-14T18:21:08;6.57;;;2.70;;
25868;SDS011;13688;53.154;18.136;2023-03-14T18:26:34;7.67;;;3.47;;
25868;SDS011;13688;53.154;18.136;2023-03-14T18:31:56;8.23;;;2.95;;
25868;SDS011;13688;53.154;18.136;2023-03-14T18:37:19;6.42;;;3.33;;
25868;SDS011;13688;53.154;18.136;2023-03-14T18:42:42;7.67;;;3.25;;
25868;SDS011;13688;53.154;18.136;2023-03-14T18:48:04;7.22;;;3.33;;
25868;SDS011;13688;53.154;18.136;2023-03-14T18:53:27;9.88;;;3.67;;
25868;SDS011;13688;53.154;18.136;2023-03-14T18:58:55;5.35;;;3.27;;
25868;SDS011;13688;53.154;18.136;2023-03-14T19:04:18;8.68;;;4.47;;
25868;SDS011;13688;53.154;18.136;2023-03-14T19:09:41;10.43;;;3.60;;
25868;SDS011;13688;53.154;18.136;2023-03-14T19:15:04;11.80;;;6.13;;
25868;SDS011;13688;53.154;18.136;2023-03-14T19:20:26;9.30;;;3.70;;
25868;SDS011;13688;53.154;18.136;2023-03-14T19:25:52;8.23;;;4.30;;
25868;SDS011;13688;53.154;18.136;2023-03-14T19:31:17;10.25;;;5.22;;
25868;SDS011;13688;53.154;18.136;2023-03-14T19:36:40;12.47;;;6.00;;
25868;SDS011;13688;53.154;18.136;2023-03-14T19:42:03;15.33;;;7.03;;
25868;SDS011;13688;53.154;18.136;2023-03-14T19:47:25;20.50;;;7.97;;
25868;SDS011;13688;53.154;18.136;2023-03-14T19:52:47;21.23;;;8.83;;
25868;SDS011;13688;53.154;18.136;2023-03-14T19:58:27;18.80;;;8.20;;
25868;SDS011;13688;53.154;18.136;2023-03-14T20:03:51;16.50;;;7.37;;
25868;SDS011;13688;53.154;18.136;2023-03-14T20:09:15;13.43;;;6.87;;
25868;SDS011;13688;53.154;18.136;2023-03-14T20:14:38;14.60;;;6.50;;
25868;SDS011;13688;53.154;18.136;2023-03-14T20:20:01;7.73;;;4.17;;
25868;SDS011;13688;53.154;18.136;2023-03-14T20:25:24;3.37;;;1.70;;
25868;SDS011;13688;53.154;18.136;2023-03-14T20:30:49;1.00;;;0.60;;
25868;SDS011;13688;53.154;18.136;2023-03-14T20:36:11;2.20;;;0.60;;
25868;SDS011;13688;53.154;18.136;2023-03-14T20:41:34;0.97;;;0.57;;
25868;SDS011;13688;53.154;18.136;2023-03-14T20:46:57;1.03;;;0.60;;
25868;SDS011;13688;53.154;18.136;2023-03-14T20:52:21;1.33;;;0.60;;
25868;SDS011;13688;53.154;18.136;2023-03-14T20:57:44;1.67;;;0.73;;
25868;SDS011;13688;53.154;18.136;2023-03-14T21:03:07;0.80;;;0.67;;
25868;SDS011;13688;53.154;18.136;2023-03-14T21:08:46;1.43;;;0.70;;
25868;SDS011;13688;53.154;18.136;2023-03-14T21:14:09;1.83;;;0.63;;
25868;SDS011;13688;53.154;18.136;2023-03-14T21:19:32;2.00;;;0.60;;
25868;SDS011;13688;53.154;18.136;2023-03-14T21:24:56;1.97;;;0.70;;
25868;SDS011;13688;53.154;18.136;2023-03-14T21:30:19;2.63;;;0.60;;
25868;SDS011;13688;53.154;18.136;2023-03-14T21:35:42;2.00;;;0.70;;
25868;SDS011;13688;53.154;18.136;2023-03-14T21:41:06;1.80;;;0.73;;
25868;SDS011;13688;53.154;18.136;2023-03-14T21:46:28;1.73;;;0.80;;
25868;SDS011;13688;53.154;18.136;2023-03-14T21:51:51;1.53;;;0.60;;
25868;SDS011;13688;53.154;18.136;2023-03-14T21:57:15;1.27;;;0.63;;
25868;SDS011;13688;53.154;18.136;2023-03-14T22:02:38;1.57;;;0.70;;
25868;SDS011;13688;53.154;18.136;2023-03-14T22:08:03;0.80;;;0.50;;
25868;SDS011;13688;53.154;18.136;2023-03-14T22:13:26;1.53;;;0.70;;
25868;SDS011;13688;53.154;18.136;2023-03-14T22:18:48;1.10;;;0.77;;
25868;SDS011;13688;53.154;18.136;2023-03-14T22:24:10;0.83;;;0.73;;
25868;SDS011;13688;53.154;18.136;2023-03-14T22:29:32;1.73;;;1.10;;
25868;SDS011;13688;53.154;18.136;2023-03-14T22:34:55;2.77;;;0.80;;
25868;SDS011;13688;53.154;18.136;2023-03-14T22:40:18;1.07;;;0.60;;
25868;SDS011;13688;53.154;18.136;2023-03-14T22:45:41;2.97;;;0.80;;
25868;SDS011;13688;53.154;18.136;2023-03-14T22:51:12;3.53;;;0.70;;
25868;SDS011;13688;53.154;18.136;2023-03-14T22:56:34;3.70;;;0.93;;
25868;SDS011;13688;53.154;18.136;2023-03-14T23:01:57;3.20;;;1.00;;
25868;SDS011;13688;53.154;18.136;2023-03-14T23:07:19;2.93;;;1.00;;
25868;SDS011;13688;53.154;18.136;2023-03-14T23:12:41;2.53;;;0.90;;
25868;SDS011;13688;53.154;18.136;2023-03-14T23:18:04;4.07;;;1.27;;
25868;SDS011;13688;53.154;18.136;2023-03-14T23:23:28;3.83;;;1.30;;
25868;SDS011;13688;53.154;18.136;2023-03-14T23:28:52;9.83;;;2.43;;
25868;SDS011;13688;53.154;18.136;2023-03-14T23:34:16;3.73;;;1.50;;
25868;SDS011;13688;53.154;18.136;2023-03-14T23:39:40;4.75;;;1.62;;
25868;SDS011;13688;53.154;18.136;2023-03-14T23:45:04;4.83;;;2.00;;
25868;SDS011;13688;53.154;18.136;2023-03-14T23:50:26;8.20;;;1.70;;
25868;SDS011;13688;53.154;18.136;2023-03-14T23:55:51;7.70;;;2.03;;
